RJNH(METAR)
10/16 18:00
METAR RJNH 160900Z 22002KT 9999 FEW020 BKN050 20/15 Q1022 RMK 1CU020
6SC050 A3019=
戻る
トップページへ戻る
IMOC Co,.Ltd.